Weather History for St. James, MN

Change the Weather History Date:

Tuesday, February 21, 2012

  Actual Average Record
Temperature  
Mean Temperature 35 °F -  
Max Temperature 37 °F 33 °F 58 °F (1981)
Min Temperature 33 °F 13 °F -14 °F (1963)
Degree Days  
Heating Degree Days 30    
Moisture  
Dew Point 30 °F    
Average Humidity 82    
Maximum Humidity 93    
Minimum Humidity 65    
Precipitation  
Precipitation 0.00 in - - ()
Sea Level Pressure  
Sea Level Pressure 29.61 in    
Wind  
Wind Speed 14 mph (WSW)    
Max Wind Speed 23 mph    
Max Gust Speed 31 mph    
Visibility 9 miles    
Events Rain    
Averages and records for this station are not official NWS values.
T = Trace of Precipitation, MM = Missing Value Source: NWS Daily Summary

Daily Weather History Graph

Daily Weather History Graph

Search for Another Location

Airport:

Trip Planner

Search our weather history database for the weather conditions in past years. The results will help you decide how hot, cold, wet, or windy it might be!

Date:

Astronomy

Feb. 21, 2012 Rise Set
Actual Time 7:08 AM CST 5:55 PM CST
Civil Twilight 6:39 AM CST 6:24 PM CST
Nautical Twilight 6:06 AM CST 6:58 PM CST
Astronomical Twilight 5:32 AM CST 7:31 PM CST
Moon 6:37 AM CST (2/21) 6:04 PM CST (2/21)
Length of Visible Light 11h 45m
Length of Day
10h 46m
Waning Crescent, 0% of the Moon is Illuminated
Feb 21
Waning Crescent
Feb 21
New
Feb 29
First Quarter
Mar 8
Full
Mar 14
Last Quarter

Hourly Weather History & Observations

Time (CST) Temp. Windchill Dew Point Humidity Pressure Visibility Wind Dir Wind Speed Gust Speed Precip Events Conditions
12:15 AM 35.6 °F 26.6 °F 33.8 °F 93% 29.60 in 4.0 mi SSE 13.8 mph 18.4 mph N/A   Overcast
12:35 AM 35.6 °F 26.6 °F 33.8 °F 93% 29.59 in 4.0 mi SSE 13.8 mph - N/A   Overcast
12:55 AM 35.6 °F 28.0 °F 33.8 °F 93% 29.59 in 4.0 mi South 10.4 mph - N/A   Overcast
1:15 AM 35.6 °F 27.5 °F 33.8 °F 93% 29.58 in 4.0 mi South 11.5 mph 18.4 mph N/A   Overcast
1:35 AM 35.6 °F 28.0 °F 33.8 °F 93% 29.58 in 2.5 mi South 10.4 mph - N/A   Light Drizzle
1:54 AM 35.6 °F 29.9 °F 33.8 °F 93% 29.57 in 2.5 mi South 6.9 mph - N/A Rain Light Rain
2:14 AM 35.6 °F 29.9 °F 33.8 °F 93% 29.57 in 2.5 mi SW 6.9 mph - N/A   Overcast
2:35 AM 35.6 °F 29.2 °F 33.8 °F 93% 29.57 in 7.0 mi WSW 8.1 mph - N/A   Overcast
2:55 AM 35.6 °F 26.6 °F 33.8 °F 93% 29.56 in 10.0 mi West 13.8 mph - N/A   Overcast
3:35 AM 35.6 °F 26.2 °F 33.8 °F 93% 29.56 in 10.0 mi West 15.0 mph - N/A   Overcast
3:55 AM 35.6 °F 25.9 °F 32.0 °F 87% 29.56 in 10.0 mi West 16.1 mph - N/A   Overcast
4:15 AM 35.6 °F 25.9 °F 32.0 °F 87% 29.56 in 10.0 mi West 16.1 mph - N/A   Overcast
4:35 AM 35.6 °F 26.2 °F 33.8 °F 93% 29.57 in 10.0 mi West 15.0 mph 20.7 mph N/A   Overcast
4:55 AM 35.6 °F 25.9 °F 33.8 °F 93% 29.57 in 10.0 mi West 16.1 mph 23.0 mph N/A   Overcast
5:15 AM 35.6 °F 26.2 °F 33.8 °F 93% 29.57 in 10.0 mi West 15.0 mph - N/A   Overcast
5:35 AM 35.6 °F 27.1 °F 32.0 °F 87% 29.58 in 10.0 mi West 12.7 mph - N/A   Scattered Clouds
5:55 AM 33.8 °F 25.8 °F 32.0 °F 93% 29.59 in 10.0 mi West 10.4 mph - N/A   Clear
6:14 AM 33.8 °F 25.8 °F 32.0 °F 93% 29.58 in 10.0 mi WSW 10.4 mph - N/A   Clear
6:35 AM 33.8 °F 24.8 °F 32.0 °F 93% 29.58 in 10.0 mi West 12.7 mph - N/A   Clear
6:55 AM 33.8 °F 23.5 °F 30.2 °F 87% 29.58 in 10.0 mi West 16.1 mph - N/A   Scattered Clouds
7:15 AM 33.8 °F 23.5 °F 30.2 °F 87% 29.58 in 10.0 mi WSW 16.1 mph 21.9 mph N/A   Mostly Cloudy
7:34 AM 33.8 °F 23.5 °F 30.2 °F 87% 29.59 in 10.0 mi WSW 16.1 mph - N/A   Scattered Clouds
7:55 AM 33.8 °F 24.3 °F 30.2 °F 87% 29.60 in 10.0 mi WSW 13.8 mph - N/A   Clear
8:15 AM 35.6 °F 26.2 °F 30.2 °F 81% 29.60 in 10.0 mi WSW 15.0 mph - N/A   Clear
8:34 AM 35.6 °F 25.5 °F 30.2 °F 81% 29.61 in 10.0 mi WSW 17.3 mph 23.0 mph N/A   Clear
8:55 AM 35.6 °F 25.5 °F 30.2 °F 81% 29.61 in 10.0 mi West 17.3 mph 23.0 mph N/A   Clear
9:14 AM 35.6 °F 25.2 °F 30.2 °F 81% 29.62 in 10.0 mi West 18.4 mph 24.2 mph N/A   Scattered Clouds
9:35 AM 35.6 °F 25.2 °F 30.2 °F 81% 29.62 in 10.0 mi West 18.4 mph 21.9 mph N/A   Mostly Cloudy
9:55 AM 35.6 °F 25.5 °F 30.2 °F 81% 29.62 in 10.0 mi West 17.3 mph - N/A   Mostly Cloudy
10:15 AM 35.6 °F 25.2 °F 30.2 °F 81% 29.63 in 10.0 mi West 18.4 mph 21.9 mph N/A   Scattered Clouds
10:35 AM 35.6 °F 24.8 °F 30.2 °F 81% 29.63 in 10.0 mi West 19.6 mph 23.0 mph N/A   Mostly Cloudy
11:15 AM 37.4 °F 26.6 °F 30.2 °F 75% 29.64 in 10.0 mi West 21.9 mph 31.1 mph N/A   Scattered Clouds
11:35 AM 35.6 °F 24.5 °F 30.2 °F 81% 29.64 in 10.0 mi West 20.7 mph 29.9 mph N/A   Overcast
11:55 AM 35.6 °F 25.5 °F 30.2 °F 81% 29.65 in 10.0 mi West 17.3 mph - N/A   Overcast
12:15 PM 35.6 °F 25.2 °F 30.2 °F 81% 29.65 in 10.0 mi West 18.4 mph 26.5 mph N/A   Overcast
12:35 PM 35.6 °F 24.0 °F 28.4 °F 75% 29.64 in 10.0 mi West 23.0 mph 27.6 mph N/A   Overcast
12:55 PM 35.6 °F 25.2 °F 30.2 °F 81% 29.63 in 10.0 mi West 18.4 mph 27.6 mph N/A   Overcast
1:15 PM 37.4 °F 26.9 °F 30.2 °F 75% 29.63 in 10.0 mi West 20.7 mph 26.5 mph N/A   Overcast
1:35 PM 35.6 °F 25.2 °F 30.2 °F 81% 29.63 in 10.0 mi West 18.4 mph - N/A   Overcast
2:15 PM 35.6 °F 24.8 °F 28.4 °F 75% 29.63 in 10.0 mi West 19.6 mph 26.5 mph N/A   Overcast
2:35 PM 35.6 °F 24.0 °F 28.4 °F 75% 29.63 in 10.0 mi West 23.0 mph 29.9 mph N/A   Overcast
2:55 PM 37.4 °F 26.4 °F 28.4 °F 70% 29.64 in 10.0 mi West 23.0 mph 28.8 mph N/A   Overcast
3:15 PM 37.4 °F 27.2 °F 28.4 °F 70% 29.64 in 10.0 mi West 19.6 mph 26.5 mph N/A   Overcast
3:35 PM 37.4 °F 27.2 °F 28.4 °F 70% 29.64 in 10.0 mi West 19.6 mph 23.0 mph N/A   Overcast
3:55 PM 35.6 °F 24.2 °F 26.6 °F 70% 29.64 in 10.0 mi West 21.9 mph 26.5 mph N/A   Overcast
4:15 PM 35.6 °F 25.2 °F 26.6 °F 70% 29.65 in 10.0 mi West 18.4 mph 24.2 mph N/A   Mostly Cloudy
4:34 PM 35.6 °F 25.9 °F 26.6 °F 70% 29.65 in 10.0 mi West 16.1 mph 23.0 mph N/A   Overcast
4:55 PM 35.6 °F 25.5 °F 26.6 °F 70% 29.65 in 10.0 mi West 17.3 mph - N/A   Overcast
5:15 PM 37.4 °F 28.2 °F 26.6 °F 65% 29.65 in 10.0 mi West 16.1 mph 25.3 mph N/A   Overcast
5:33 PM 35.6 °F 25.5 °F 26.6 °F 70% 29.66 in 10.0 mi West 17.3 mph - N/A   Overcast
5:55 PM 35.6 °F 27.5 °F 26.6 °F 70% 29.66 in 10.0 mi WSW 11.5 mph 17.3 mph N/A   Overcast
6:15 PM 35.6 °F 25.9 °F 26.6 °F 70% 29.65 in 10.0 mi WSW 16.1 mph 20.7 mph N/A   Overcast
6:35 PM 35.6 °F 27.1 °F 26.6 °F 70% 29.65 in 10.0 mi WSW 12.7 mph 18.4 mph N/A   Overcast
6:55 PM 33.8 °F 24.8 °F 26.6 °F 75% 29.65 in 10.0 mi SW 12.7 mph - N/A   Overcast
7:15 PM 33.8 °F 25.8 °F 28.4 °F 81% 29.65 in 10.0 mi SW 10.4 mph - N/A   Overcast
7:35 PM 33.8 °F 25.3 °F 28.4 °F 81% 29.65 in 10.0 mi SW 11.5 mph - N/A   Overcast
7:55 PM 33.8 °F 27.0 °F 28.4 °F 81% 29.65 in 10.0 mi WSW 8.1 mph - N/A   Overcast
8:15 PM 33.8 °F 26.4 °F 28.4 °F 81% 29.64 in 10.0 mi SW 9.2 mph - N/A   Overcast
8:35 PM 33.8 °F 25.8 °F 28.4 °F 81% 29.64 in 10.0 mi WSW 10.4 mph - N/A   Overcast
8:55 PM 33.8 °F 24.8 °F 28.4 °F 81% 29.64 in 10.0 mi WSW 12.7 mph - N/A   Overcast
9:15 PM 35.6 °F 27.5 °F 28.4 °F 75% 29.63 in 10.0 mi SW 11.5 mph - N/A   Overcast
9:35 PM 35.6 °F 27.5 °F 28.4 °F 75% 29.63 in 10.0 mi SW 11.5 mph - N/A   Overcast
9:55 PM 33.8 °F 25.3 °F 28.4 °F 81% 29.63 in 10.0 mi SW 11.5 mph - N/A   Overcast
10:15 PM 35.6 °F 27.5 °F 28.4 °F 75% 29.63 in 10.0 mi SW 11.5 mph - N/A   Overcast
10:34 PM 35.6 °F 27.5 °F 28.4 °F 75% 29.63 in 10.0 mi SW 11.5 mph - N/A   Overcast
10:54 PM 35.6 °F 28.6 °F 28.4 °F 75% 29.62 in 10.0 mi WSW 9.2 mph - N/A   Overcast
11:15 PM 35.6 °F 30.7 °F 28.4 °F 75% 29.61 in 10.0 mi WSW 5.8 mph - N/A   Mostly Cloudy
11:35 PM 33.8 °F 30.8 °F 28.4 °F 81% 29.60 in 10.0 mi West 3.5 mph - N/A   Overcast
11:55 PM 32.0 °F 24.8 °F 28.4 °F 87% 29.59 in 10.0 mi SSW 8.1 mph - N/A   Overcast